Mainland, Pennsylvania
Current Conditions -  °F | °C
As of 12:35 AM on Thursday 23 Oct 2014 (Local Time) from KLOM Reporting Station
Overcast Overcast  
Wind Chill: 52°   Ceiling: 1900
Heat Index: 52°   Visibility: 5mi
Dew Point: 50°   Wind: 6mph
Humidity: 94%   Direction: 320°NW
Pressure: 29.78"   Gusts: NA
Location:  40.26°N, 75.36°W
Report Text: KLOM 230435Z AUTO 32005KT 5SM SCT012 BKN019 OVC025 11/10 A2978 RMK AO1 P0003
Loading
Personal Weather Stations






























Interactive Weather Map
Tropical Storm Tracking
New forecast layout! Learn more

10-Day Weather Forecast

Advertisements
Track Severe Weather on mobile